MOL Celebration — C6WW7 — position and weather

sailwx.info

Track history (hours):
 
Tides and Currents Weather Stations Pressure Air Temp Water Temp Dewpoint Dewpoint Depression Visibility Wind Speed Wind Dir Waves Ship Positions

MOL Celebration

Last reported at 2018-Jul-18 18:17 UTC. Time now 2018-Jul-21 11:26 UTC.
Position N 01°42' E 104°36'.

Length 316 m; draft 11 m.

Type: Ship (hazmat cat D). MMSI: 309901000.

Date/timePositionNaut miles runAvg speedWind from/ knotsBaromVisibWave heightAir tempDewpointWater temp
2018-Jul-18 18:17N 01°42' E 104°36'821.8
2018-Jul-18 17:56N 01°34' E 104°35'920.0
2018-Jul-18 17:30N 01°27' E 104°30'918.2
2018-Jul-18 16:59N 01°21' E 104°23'817.5
2018-Jul-18 16:31N 01°16' E 104°16'816.2
2018-Jul-18 15:59N 01°16' E 104°08'714.9
2018-Jul-18 15:30N 01°15' E 104°00'714.9
2018-Jul-18 15:00N 01°13' E 103°53'5 9.6
2018-Jul-18 14:30N 01°12' E 103°49'5 5.5
2018-Jul-18 13:30N 01°17' E 103°46'0 0.2
2018-Jul-18 13:00N 01°17' E 103°46'0 0.0
2018-Jul-18 12:30N 01°17' E 103°46'0 0.0
2018-Jul-18 12:00N 01°17' E 103°46'0 0.0
2018-Jul-18 11:30N 01°17' E 103°46'0 0.0
2018-Jul-18 10:30N 01°17' E 103°46'0 0.0
2018-Jul-18 10:00N 01°17' E 103°46'0 0.0
2018-Jul-18 09:30N 01°17' E 103°46'0 0.0
2018-Jul-18 09:00N 01°17' E 103°46'0 0.0
2018-Jul-18 08:30N 01°17' E 103°46'0 0.0
2018-Jul-18 08:00N 01°17' E 103°46'0 0.0
2018-Jul-18 07:28N 01°17' E 103°46'0 0.0
2018-Jul-18 07:00N 01°17' E 103°46'0 0.0
2018-Jul-18 06:30N 01°17' E 103°46'0 0.0
2018-Jul-18 05:58N 01°17' E 103°46'0 0.0
2018-Jul-18 05:30N 01°17' E 103°46'0 0.0
2018-Jul-18 05:00N 01°17' E 103°46'0 0.0
2018-Jul-18 04:30N 01°17' E 103°46'0 0.0
2018-Jul-18 03:58N 01°17' E 103°46'0 0.0
2018-Jul-18 03:30N 01°17' E 103°46'0 0.0
2018-Jul-18 02:58N 01°17' E 103°46'0 0.0
2018-Jul-18 02:30N 01°17' E 103°46'0 0.0
2018-Jul-18 02:00N 01°17' E 103°46'0 0.0
2018-Jul-18 01:30N 01°17' E 103°46'0 0.0
2018-Jul-18 00:58N 01°17' E 103°46'0 0.0
2018-Jul-18 00:30N 01°17' E 103°46'0 0.0
2018-Jul-17 23:55N 01°17' E 103°46'0 0.0
2018-Jul-17 23:30N 01°17' E 103°46'0 0.0
2018-Jul-17 23:00N 01°17' E 103°46'0 0.0
2018-Jul-17 22:30N 01°17' E 103°46'0 0.0
2018-Jul-17 22:00N 01°17' E 103°46'0 0.0
2018-Jul-17 21:28N 01°17' E 103°46'0 0.0
2018-Jul-17 21:00N 01°17' E 103°46'0 0.0
2018-Jul-17 20:30N 01°17' E 103°46'0 0.0
2018-Jul-17 20:00N 01°17' E 103°46'0 0.0
2018-Jul-17 19:30N 01°17' E 103°46'0 0.0
2018-Jul-17 18:58N 01°17' E 103°46'0 0.0
2018-Jul-17 18:27N 01°17' E 103°46'0 0.1
2018-Jul-17 17:58N 01°17' E 103°46'1 1.2
2018-Jul-17 17:30N 01°17' E 103°46'2 3.5
2018-Jul-17 17:00N 01°16' E 103°46'612.5
2018-Jul-17 16:31N 01°13' E 103°52'5 9.7
2018-Jul-17 16:00N 01°15' E 103°57'611.5
2018-Jul-17 15:30N 01°16' E 104°02'5 9.8
2018-Jul-17 14:59N 01°17' E 104°07'4 8.6
2018-Jul-17 14:30N 01°17' E 104°11'5 9.6
2018-Jul-17 13:59N 01°18' E 104°16'5 9.6
2018-Jul-17 13:30N 01°19' E 104°20'610.2
2018-Jul-17 12:57N 01°23' E 104°25'811.2
2018-Jul-17 12:14N 01°28' E 104°31'  
2018-Jul-14 02:55N 22°11' E 119°55'817.1
2018-Jul-14 02:28N 22°17' E 120°00'812.3
2018-Jul-14 01:49N 22°23' E 120°06'411.8
2018-Jul-14 01:30N 22°26' E 120°09'611.6
2018-Jul-14 01:00N 22°31' E 120°12'5 9.8
2018-Jul-14 00:30N 22°33' E 120°17'2 3.2
2018-Jul-13 23:46N 22°33' E 120°20'0 0.0
2018-Jul-13 23:28N 22°33' E 120°20'0 0.0
2018-Jul-13 22:52N 22°33' E 120°20'0 0.0
2018-Jul-13 22:22N 22°33' E 120°20'0 0.0
2018-Jul-13 21:58N 22°33' E 120°20'0 0.0
2018-Jul-13 21:22N 22°33' E 120°20'0 0.0
2018-Jul-13 20:58N 22°33' E 120°20'0 0.0
2018-Jul-13 20:28N 22°33' E 120°20'0 0.0
2018-Jul-13 19:57N 22°33' E 120°20'0 0.0
2018-Jul-13 19:28N 22°33' E 120°20'0 0.0
2018-Jul-13 18:58N 22°33' E 120°20'0 0.0
2018-Jul-13 18:28N 22°33' E 120°20'0 0.0
2018-Jul-13 17:58N 22°33' E 120°20'0 0.0
2018-Jul-13 17:22N 22°33' E 120°20'0 0.0
2018-Jul-13 16:58N 22°33' E 120°20'0 0.1
2018-Jul-13 16:22N 22°33' E 120°19'0 0.0
2018-Jul-13 15:58N 22°33' E 120°19'0 0.1
2018-Jul-13 15:28N 22°33' E 120°20'0 0.0
2018-Jul-13 14:57N 22°33' E 120°20'0 0.0
2018-Jul-13 13:57N 22°33' E 120°20'0 0.0
2018-Jul-13 13:28N 22°33' E 120°20'0 0.0
2018-Jul-13 12:52N 22°33' E 120°20'0 0.0
2018-Jul-13 12:28N 22°33' E 120°20'0 0.0
2018-Jul-13 11:58N 22°33' E 120°20'0 0.0
2018-Jul-13 11:27N 22°33' E 120°20'0 0.0
2018-Jul-13 11:00N 22°33' E 120°20'1 2.2
2018-Jul-13 10:30N 22°33' E 120°18'4 8.2
2018-Jul-13 09:59N 22°32' E 120°14'2 4.5
2018-Jul-13 09:30N 22°30' E 120°13'4 8.7
2018-Jul-13 09:00N 22°26' E 120°14'4 8.9
2018-Jul-13 08:30N 22°22' E 120°15'611.2
2018-Jul-13 08:00N 22°16' E 120°17'611.8
2018-Jul-13 07:30N 22°11' E 120°20'713.6
2018-Jul-13 07:00N 22°05' E 120°24'  
2018-Jul-09 20:54N 33°49' E 134°55'411.6
2018-Jul-09 20:31N 33°53' E 134°55'611.7
2018-Jul-09 20:01N 33°59' E 134°55'611.7
2018-Jul-09 19:30N 34°05' E 134°56'612.1
2018-Jul-09 19:00N 34°11' E 134°56'611.4
2018-Jul-09 18:30N 34°16' E 134°58'816.9
2018-Jul-09 18:00N 34°24' E 135°02'918.2
2018-Jul-09 17:30N 34°31' E 135°10'816.3
2018-Jul-09 17:00N 34°37' E 135°16'3 5.1
2018-Jul-09 16:30N 34°39' E 135°15'0 0.4
2018-Jul-09 15:59N 34°39' E 135°14'0 0.0
2018-Jul-09 15:29N 34°39' E 135°14'0 0.0
2018-Jul-09 14:59N 34°39' E 135°14'0 0.0
2018-Jul-09 14:29N 34°39' E 135°14'0 0.0
2018-Jul-09 13:59N 34°39' E 135°14'0 0.0
2018-Jul-09 13:29N 34°39' E 135°14'0 0.0
2018-Jul-09 12:59N 34°39' E 135°14'0 0.0
2018-Jul-09 12:29N 34°39' E 135°14'0 0.0
2018-Jul-09 11:59N 34°39' E 135°14'0 0.0
2018-Jul-09 11:29N 34°39' E 135°14'0 0.0
2018-Jul-09 10:59N 34°39' E 135°14'0 0.0
2018-Jul-09 10:29N 34°39' E 135°14'0 0.0
2018-Jul-09 10:00N 34°39' E 135°14'1 1.2
2018-Jul-09 09:30N 34°39' E 135°15'3 5.3
2018-Jul-09 09:01N 34°37' E 135°16'612.3
2018-Jul-09 08:30N 34°32' E 135°12'816.5
2018-Jul-09 08:00N 34°26' E 135°06'918.0
2018-Jul-09 07:30N 34°18' E 134°59'815.2
2018-Jul-09 07:00N 34°10' E 134°59'510.7
2018-Jul-09 06:30N 34°05' E 134°59'4 8.7
2018-Jul-09 06:00N 34°01' E 134°59'612.7
2018-Jul-09 05:30N 33°54' E 134°59'712.9
2018-Jul-09 05:00N 33°48' E 134°59'613.3
2018-Jul-09 04:30N 33°44' E 135°04'713.2
2018-Jul-09 04:00N 33°39' E 135°10'  
Track history (hours):
 
Tides and Currents Weather Stations Pressure Air Temp Water Temp Dewpoint Dewpoint Depression Visibility Wind Speed Wind Dir Waves Ship Positions

MOL Celebration

Last reported at 2018-Jul-18 18:17 UTC. Time now 2018-Jul-21 11:26 UTC.
Position N 01°42' E 104°36'.

Length 316 m; draft 11 m.

Type: Ship (hazmat cat D). MMSI: 309901000.

Date/timePositionNaut miles runAvg speedWind from/ knotsBaromVisibWave heightAir tempDewpointWater temp
2018-Jul-18 18:17N 01°42' E 104°36'821.8
2018-Jul-18 17:56N 01°34' E 104°35'920.0
2018-Jul-18 17:30N 01°27' E 104°30'918.2
2018-Jul-18 16:59N 01°21' E 104°23'817.5
2018-Jul-18 16:31N 01°16' E 104°16'816.2
2018-Jul-18 15:59N 01°16' E 104°08'714.9
2018-Jul-18 15:30N 01°15' E 104°00'714.9
2018-Jul-18 15:00N 01°13' E 103°53'5 9.6
2018-Jul-18 14:30N 01°12' E 103°49'5 5.5
2018-Jul-18 13:30N 01°17' E 103°46'0 0.2
2018-Jul-18 13:00N 01°17' E 103°46'0 0.0
2018-Jul-18 12:30N 01°17' E 103°46'0 0.0
2018-Jul-18 12:00N 01°17' E 103°46'0 0.0
2018-Jul-18 11:30N 01°17' E 103°46'0 0.0
2018-Jul-18 10:30N 01°17' E 103°46'0 0.0
2018-Jul-18 10:00N 01°17' E 103°46'0 0.0
2018-Jul-18 09:30N 01°17' E 103°46'0 0.0
2018-Jul-18 09:00N 01°17' E 103°46'0 0.0
2018-Jul-18 08:30N 01°17' E 103°46'0 0.0
2018-Jul-18 08:00N 01°17' E 103°46'0 0.0
2018-Jul-18 07:28N 01°17' E 103°46'0 0.0
2018-Jul-18 07:00N 01°17' E 103°46'0 0.0
2018-Jul-18 06:30N 01°17' E 103°46'0 0.0
2018-Jul-18 05:58N 01°17' E 103°46'0 0.0
2018-Jul-18 05:30N 01°17' E 103°46'0 0.0
2018-Jul-18 05:00N 01°17' E 103°46'0 0.0
2018-Jul-18 04:30N 01°17' E 103°46'0 0.0
2018-Jul-18 03:58N 01°17' E 103°46'0 0.0
2018-Jul-18 03:30N 01°17' E 103°46'0 0.0
2018-Jul-18 02:58N 01°17' E 103°46'0 0.0
2018-Jul-18 02:30N 01°17' E 103°46'0 0.0
2018-Jul-18 02:00N 01°17' E 103°46'0 0.0
2018-Jul-18 01:30N 01°17' E 103°46'0 0.0
2018-Jul-18 00:58N 01°17' E 103°46'0 0.0
2018-Jul-18 00:30N 01°17' E 103°46'0 0.0
2018-Jul-17 23:55N 01°17' E 103°46'0 0.0
2018-Jul-17 23:30N 01°17' E 103°46'0 0.0
2018-Jul-17 23:00N 01°17' E 103°46'0 0.0
2018-Jul-17 22:30N 01°17' E 103°46'0 0.0
2018-Jul-17 22:00N 01°17' E 103°46'0 0.0
2018-Jul-17 21:28N 01°17' E 103°46'0 0.0
2018-Jul-17 21:00N 01°17' E 103°46'0 0.0
2018-Jul-17 20:30N 01°17' E 103°46'0 0.0
2018-Jul-17 20:00N 01°17' E 103°46'0 0.0
2018-Jul-17 19:30N 01°17' E 103°46'0 0.0
2018-Jul-17 18:58N 01°17' E 103°46'0 0.0
2018-Jul-17 18:27N 01°17' E 103°46'0 0.1
2018-Jul-17 17:58N 01°17' E 103°46'1 1.2
2018-Jul-17 17:30N 01°17' E 103°46'2 3.5
2018-Jul-17 17:00N 01°16' E 103°46'612.5
2018-Jul-17 16:31N 01°13' E 103°52'5 9.7
2018-Jul-17 16:00N 01°15' E 103°57'611.5
2018-Jul-17 15:30N 01°16' E 104°02'5 9.8
2018-Jul-17 14:59N 01°17' E 104°07'4 8.6
2018-Jul-17 14:30N 01°17' E 104°11'5 9.6
2018-Jul-17 13:59N 01°18' E 104°16'5 9.6
2018-Jul-17 13:30N 01°19' E 104°20'610.2
2018-Jul-17 12:57N 01°23' E 104°25'811.2
2018-Jul-17 12:14N 01°28' E 104°31'  
2018-Jul-14 02:55N 22°11' E 119°55'817.1
2018-Jul-14 02:28N 22°17' E 120°00'812.3
2018-Jul-14 01:49N 22°23' E 120°06'411.8
2018-Jul-14 01:30N 22°26' E 120°09'611.6
2018-Jul-14 01:00N 22°31' E 120°12'5 9.8
2018-Jul-14 00:30N 22°33' E 120°17'2 3.2
2018-Jul-13 23:46N 22°33' E 120°20'0 0.0
2018-Jul-13 23:28N 22°33' E 120°20'0 0.0
2018-Jul-13 22:52N 22°33' E 120°20'0 0.0
2018-Jul-13 22:22N 22°33' E 120°20'0 0.0
2018-Jul-13 21:58N 22°33' E 120°20'0 0.0
2018-Jul-13 21:22N 22°33' E 120°20'0 0.0
2018-Jul-13 20:58N 22°33' E 120°20'0 0.0
2018-Jul-13 20:28N 22°33' E 120°20'0 0.0
2018-Jul-13 19:57N 22°33' E 120°20'0 0.0
2018-Jul-13 19:28N 22°33' E 120°20'0 0.0
2018-Jul-13 18:58N 22°33' E 120°20'0 0.0
2018-Jul-13 18:28N 22°33' E 120°20'0 0.0
2018-Jul-13 17:58N 22°33' E 120°20'0 0.0
2018-Jul-13 17:22N 22°33' E 120°20'0 0.0
2018-Jul-13 16:58N 22°33' E 120°20'0 0.1
2018-Jul-13 16:22N 22°33' E 120°19'0 0.0
2018-Jul-13 15:58N 22°33' E 120°19'0 0.1
2018-Jul-13 15:28N 22°33' E 120°20'0 0.0
2018-Jul-13 14:57N 22°33' E 120°20'0 0.0
2018-Jul-13 13:57N 22°33' E 120°20'0 0.0
2018-Jul-13 13:28N 22°33' E 120°20'0 0.0
2018-Jul-13 12:52N 22°33' E 120°20'0 0.0
2018-Jul-13 12:28N 22°33' E 120°20'0 0.0
2018-Jul-13 11:58N 22°33' E 120°20'0 0.0
2018-Jul-13 11:27N 22°33' E 120°20'0 0.0
2018-Jul-13 11:00N 22°33' E 120°20'1 2.2
2018-Jul-13 10:30N 22°33' E 120°18'4 8.2
2018-Jul-13 09:59N 22°32' E 120°14'2 4.5
2018-Jul-13 09:30N 22°30' E 120°13'4 8.7
2018-Jul-13 09:00N 22°26' E 120°14'4 8.9
2018-Jul-13 08:30N 22°22' E 120°15'611.2
2018-Jul-13 08:00N 22°16' E 120°17'611.8
2018-Jul-13 07:30N 22°11' E 120°20'713.6
2018-Jul-13 07:00N 22°05' E 120°24'  
2018-Jul-09 20:54N 33°49' E 134°55'411.6
2018-Jul-09 20:31N 33°53' E 134°55'611.7
2018-Jul-09 20:01N 33°59' E 134°55'611.7
2018-Jul-09 19:30N 34°05' E 134°56'612.1
2018-Jul-09 19:00N 34°11' E 134°56'611.4
2018-Jul-09 18:30N 34°16' E 134°58'816.9
2018-Jul-09 18:00N 34°24' E 135°02'918.2
2018-Jul-09 17:30N 34°31' E 135°10'816.3
2018-Jul-09 17:00N 34°37' E 135°16'3 5.1
2018-Jul-09 16:30N 34°39' E 135°15'0 0.4
2018-Jul-09 15:59N 34°39' E 135°14'0 0.0
2018-Jul-09 15:29N 34°39' E 135°14'0 0.0
2018-Jul-09 14:59N 34°39' E 135°14'0 0.0
2018-Jul-09 14:29N 34°39' E 135°14'0 0.0
2018-Jul-09 13:59N 34°39' E 135°14'0 0.0
2018-Jul-09 13:29N 34°39' E 135°14'0 0.0
2018-Jul-09 12:59N 34°39' E 135°14'0 0.0
2018-Jul-09 12:29N 34°39' E 135°14'0 0.0
2018-Jul-09 11:59N 34°39' E 135°14'0 0.0
2018-Jul-09 11:29N 34°39' E 135°14'0 0.0
2018-Jul-09 10:59N 34°39' E 135°14'0 0.0
2018-Jul-09 10:29N 34°39' E 135°14'0 0.0
2018-Jul-09 10:00N 34°39' E 135°14'1 1.2
2018-Jul-09 09:30N 34°39' E 135°15'3 5.3
2018-Jul-09 09:01N 34°37' E 135°16'612.3
2018-Jul-09 08:30N 34°32' E 135°12'816.5
2018-Jul-09 08:00N 34°26' E 135°06'918.0
2018-Jul-09 07:30N 34°18' E 134°59'815.2
2018-Jul-09 07:00N 34°10' E 134°59'510.7
2018-Jul-09 06:30N 34°05' E 134°59'4 8.7
2018-Jul-09 06:00N 34°01' E 134°59'612.7
2018-Jul-09 05:30N 33°54' E 134°59'712.9
2018-Jul-09 05:00N 33°48' E 134°59'613.3
2018-Jul-09 04:30N 33°44' E 135°04'713.2
2018-Jul-09 04:00N 33°39' E 135°10'  

Dump ship's entire track history